Terminal Aerodrome Forecast
Issued by NWS

Home | Current Version | Previous Version | Text Only | Print | Product List | Glossary On
Versions: 1 2 3 4 5 6 7 8 9 10 11 12 13 14 15 16 17 18 19 20 21 22 23 24 25 26 27 28 29
000
FTUS41 KILN 010500
TAFLCK
TAF
KLCK 010540Z 0106/0206 20004KT P6SM -SN SCT020 OVC035
      TEMPO 0108/0112 4SM -SN BR OVC020
     FM011200 14004KT 5SM -RASN BR SCT015 OVC020
     FM011500 12008KT P6SM SCT025 OVC100
     FM012100 11010KT 3SM -RA BR BKN020 OVC040=

USA.gov is the U.S. government's official web portal to all federal, state and local government web resources and services.